Antioch, South Carolina
Current Conditions -  °F | °C
As of 6:55 PM on Monday 20 Oct 2014 (Local Time) from KCDN Reporting Station
Few Clouds Few Clouds  
Wind Chill: 19°   Ceiling: Unl
Heat Index: 19°   Visibility: 10mi
Dew Point: 12°   Wind: 0mph
Humidity: 64%   Direction: NA
Pressure: 30"   Gusts: NA
Location:  34.2974°N, 80.6089°W
Report Text: KCDN 202255Z AUTO 00000KT 10SM FEW050 19/12 A3000 RMK AO2 TSNO
Loading
Personal Weather Stations






























Interactive Weather Map
Tropical Storm Tracking
New forecast layout! Learn more

10-Day Weather Forecast

Advertisements
Track Severe Weather on mobile